Pagrindinis puslapis
METAR-TAF:

METAR-TAF

Oro uostai :

Fort Yukon, Aliaska, Jungtinės Amerikos Valstijos

platuma: 66-34N, ilguma: 145-16W, Aukštis: 433 m

Dabartinis oras

Ataskaita buvo paskelbta 59 minutes, ne 18:56 UTC
Ramus vėjas
Temperatūra -13°C
Drėgmė 85%
Slėgis 1017 hPa
Matomumas: 16.1 km
Giedras dangus

METAR: PFYU 281856Z 00000KT 10SM CLR M13/M15 A3003 RMK AO2 SLP187 T11331150

Laikas: 11:55 (19:55 UTC)


TAF: trūkstamas

Orai ataskaitas ir orų prognozės (METAR, TAF).

turimą stotys yra geltonos ir raudonos taškus žemėlapyje.

Perkelti pele per norėdami pamatyti stoties vardą.

Tada spustelėkite, norėdami matyti oro stebėjimo ir prognozės.

Norėdami pakeisti žemėlapį: spustelėkite ant žalios mygtukų su juodo kryžiaus žemyn,; žalią mygtuką su brūkšneliu, jei norite nutolinti; arba žalių rodyklių gretimoms žemėlapius.


METAR-TAF: